Time;durP1;ratioP1;P1;durP2;ratioP2;P2;SDS_P1;SDS_P2;PMS_P1;PMS_P2;Temp;Humidity;BMP_temperature;BMP_pressure;BME280_temperature;BME280_humidity;BME280_pressure;Samples;Min_cycle;Max_cycle;Signal;HPM_P1;HPM_P2
2021/09/25 00:01:15;;;;;;;14.05;7.93;;;;;;;10.38;75.88;98404.47;5010339;28;20037;-55
2021/09/25 00:03:41;;;;;;;12.52;6.90;;;;;;;10.26;75.88;98379.19;5010158;28;20508;-53
2021/09/25 00:06:07;;;;;;;15.32;6.82;;;;;;;10.31;76.49;98390.97;4992905;28;20048;-52
2021/09/25 00:08:33;;;;;;;13.20;7.53;;;;;;;10.36;75.95;98394.19;5011129;28;20041;-55
2021/09/25 00:10:58;;;;;;;15.43;8.13;;;;;;;10.36;75.99;98391.59;5010719;28;20033;-53
2021/09/25 00:13:24;;;;;;;12.20;6.60;;;;;;;10.28;76.41;98374.72;5009995;28;20046;-52
2021/09/25 00:15:50;;;;;;;10.93;7.35;;;;;;;10.39;76.70;98390.56;5010564;28;20045;-56
2021/09/25 00:18:16;;;;;;;14.85;7.55;;;;;;;10.39;76.41;98393.16;4992119;28;20205;-56
2021/09/25 00:20:42;;;;;;;14.98;7.32;;;;;;;10.39;76.37;98399.19;5010848;28;20136;-50
2021/09/25 00:23:08;;;;;;;15.20;7.40;;;;;;;10.40;76.32;98387.91;4976415;28;20149;-54
2021/09/25 00:25:34;;;;;;;13.50;7.72;;;;;;;10.23;76.19;98367.19;5010240;28;20560;-49
2021/09/25 00:28:01;;;;;;;13.18;7.43;;;;;;;10.38;76.73;98384.53;5010579;28;20509;-54
2021/09/25 00:30:26;;;;;;;11.77;7.55;;;;;;;10.38;76.86;98387.13;5020512;28;20114;-53
2021/09/25 00:32:52;;;;;;;12.32;7.30;;;;;;;10.36;76.41;98393.34;5011887;28;20073;-53
2021/09/25 00:35:18;;;;;;;13.70;6.65;;;;;;;10.32;76.90;98384.84;5010564;28;20046;-50
2021/09/25 00:37:44;;;;;;;11.52;7.10;;;;;;;10.26;77.38;98386.97;5010394;28;20077;-51
2021/09/25 00:40:12;;;;;;;11.32;7.50;;;;;;;10.20;77.76;98382.94;5010032;28;20072;-53
2021/09/25 00:42:38;;;;;;;13.35;7.25;;;;;;;10.18;77.63;98369.19;5002605;28;20405;-48
2021/09/25 00:45:06;;;;;;;11.25;7.22;;;;;;;10.19;77.08;98376.06;5009928;28;20132;-53
2021/09/25 00:47:32;;;;;;;9.98;7.13;;;;;;;10.20;78.00;98381.16;5009598;28;20042;-51
2021/09/25 00:49:58;;;;;;;13.15;6.68;;;;;;;10.15;78.08;98383.13;4991925;28;20042;-52
2021/09/25 00:52:24;;;;;;;16.80;8.05;;;;;;;10.15;78.12;98387.50;5009541;28;20467;-48
2021/09/25 00:54:49;;;;;;;12.50;7.20;;;;;;;10.06;78.36;98373.25;5010116;28;20030;-50
2021/09/25 00:57:15;;;;;;;10.55;6.55;;;;;;;10.02;78.34;98370.88;5024783;28;20108;-50
2021/09/25 00:59:42;;;;;;;12.98;7.32;;;;;;;10.11;78.55;98386.81;5009658;28;20128;-49
2021/09/25 01:02:11;;;;;;;16.60;7.40;;;;;;;10.04;78.49;98369.06;5009789;28;20045;-53
2021/09/25 01:04:38;;;;;;;12.52;8.00;;;;;;;10.08;78.70;98386.16;5009628;28;20100;-52
2021/09/25 01:07:04;;;;;;;15.75;7.72;;;;;;;10.06;78.46;98383.63;4992360;28;20049;-52
2021/09/25 01:09:31;;;;;;;14.00;7.53;;;;;;;10.05;78.77;98376.75;5010158;28;20584;-51
2021/09/25 01:11:56;;;;;;;11.30;6.80;;;;;;;10.07;78.83;98384.47;5009750;28;20052;-52
2021/09/25 01:14:23;;;;;;;13.45;7.38;;;;;;;10.08;78.84;98386.16;5009714;28;20519;-52
2021/09/25 01:16:49;;;;;;;16.67;7.13;;;;;;;10.07;78.78;98389.66;5010117;28;20133;-50
2021/09/25 01:19:15;;;;;;;13.20;7.13;;;;;;;10.05;79.32;98394.94;5009832;28;20041;-47
2021/09/25 01:21:41;;;;;;;13.55;7.53;;;;;;;10.05;78.99;98388.88;5009901;28;20050;-52
2021/09/25 01:24:06;;;;;;;13.93;7.25;;;;;;;10.10;78.61;98379.94;5009741;28;20050;-51
2021/09/25 01:26:32;;;;;;;12.57;6.90;;;;;;;10.04;78.81;98372.50;4991995;28;20038;-49
2021/09/25 01:28:59;;;;;;;11.13;6.80;;;;;;;10.11;78.80;98392.00;5009521;28;20141;-48
2021/09/25 01:31:24;;;;;;;12.20;7.55;;;;;;;10.04;79.29;98390.69;5036210;28;20036;-49
2021/09/25 01:33:51;;;;;;;13.40;7.07;;;;;;;10.04;79.43;98388.09;5012919;28;20516;-48
2021/09/25 01:36:18;;;;;;;12.20;7.30;;;;;;;10.04;79.43;98382.88;5011640;28;20049;-47
2021/09/25 01:38:44;;;;;;;15.85;7.90;;;;;;;10.07;79.50;98382.72;5027915;28;20042;-49
2021/09/25 01:41:11;;;;;;;11.95;6.85;;;;;;;10.02;79.48;98382.13;5020565;28;20041;-51
2021/09/25 01:43:37;;;;;;;13.48;7.22;;;;;;;10.04;79.32;98388.09;5021055;28;20172;-48
2021/09/25 01:46:02;;;;;;;11.95;7.15;;;;;;;10.03;79.44;98380.38;5013506;28;20125;-49
2021/09/25 01:48:28;;;;;;;12.65;7.25;;;;;;;10.03;79.84;98383.81;5020583;28;20042;-52
2021/09/25 01:50:54;;;;;;;14.02;7.40;;;;;;;10.00;80.10;98388.28;5012350;28;20125;-49
2021/09/25 01:53:21;;;;;;;11.07;7.07;;;;;;;9.96;80.17;98379.84;5012985;28;20554;-49
2021/09/25 01:55:48;;;;;;;12.40;6.43;;;;;;;9.96;79.85;98385.03;4995324;28;20037;-48
2021/09/25 01:58:14;;;;;;;11.00;6.50;;;;;;;9.93;80.02;98381.78;5012854;28;20068;-51
2021/09/25 02:00:39;;;;;;;13.68;7.75;;;;;;;9.83;80.44;98362.41;5013531;28;20038;-54
2021/09/25 02:03:07;;;;;;;12.75;7.15;;;;;;;9.92;80.35;98378.34;5019478;28;20049;-53
2021/09/25 02:05:33;;;;;;;11.55;7.00;;;;;;;9.92;80.14;98375.75;5012161;28;21055;-49
2021/09/25 02:07:59;;;;;;;11.25;6.68;;;;;;;9.86;80.41;98376.06;5024196;28;20034;-49
2021/09/25 02:10:26;;;;;;;12.65;6.78;;;;;;;9.85;80.79;98376.13;5038305;28;20416;-49
2021/09/25 02:12:52;;;;;;;12.90;7.38;;;;;;;9.72;81.08;98370.75;5024416;28;20091;-49
2021/09/25 02:15:18;;;;;;;12.32;7.18;;;;;;;9.84;81.09;98390.84;5012950;28;20034;-53
2021/09/25 02:17:44;;;;;;;12.18;6.82;;;;;;;9.84;81.23;98388.25;5011919;28;20053;-53
2021/09/25 02:20:12;;;;;;;13.77;7.85;;;;;;;9.88;81.13;98391.56;4995103;28;20548;-50
2021/09/25 02:22:38;;;;;;;13.32;6.97;;;;;;;9.85;80.55;98392.53;5018217;28;20046;-55
2021/09/25 02:25:07;;;;;;;11.98;6.90;;;;;;;9.87;81.34;98389.88;5011918;28;20580;-53
2021/09/25 02:27:39;;;;;;;13.23;7.35;;;;;;;9.87;80.51;98382.94;5012947;28;20050;-53
2021/09/25 02:30:10;;;;;;;13.85;7.25;;;;;;;9.87;81.05;98395.91;5017075;28;20495;-47
2021/09/25 02:32:36;;;;;;;10.45;7.15;;;;;;;9.87;81.02;98397.66;5027300;28;20046;-52
2021/09/25 02:35:02;;;;;;;12.68;7.40;;;;;;;9.90;80.44;98400.09;5012586;28;20504;-52
2021/09/25 02:37:28;;;;;;;14.02;7.40;;;;;;;9.91;80.63;98397.41;5012145;28;20045;-49
2021/09/25 02:39:54;;;;;;;11.65;6.75;;;;;;;9.95;80.87;98393.72;5022129;28;20038;-52
2021/09/25 02:42:19;;;;;;;12.00;7.05;;;;;;;9.93;80.58;98386.97;5012257;28;20137;-56
2021/09/25 02:44:45;;;;;;;12.90;7.10;;;;;;;9.87;80.37;98384.69;5011868;28;20398;-54
2021/09/25 02:47:10;;;;;;;13.43;7.32;;;;;;;9.92;80.79;98400.84;5011736;28;20518;-50
2021/09/25 02:49:36;;;;;;;14.27;7.22;;;;;;;9.90;81.05;98387.09;5011656;28;20050;-52
2021/09/25 02:52:02;;;;;;;9.93;6.80;;;;;;;9.88;80.94;98397.59;4994605;28;20421;-50
2021/09/25 02:54:29;;;;;;;13.07;7.60;;;;;;;9.91;80.34;98404.38;5011227;28;20038;-52
2021/09/25 02:56:54;;;;;;;11.00;7.20;;;;;;;9.90;80.81;98400.09;5011718;28;20140;-53
2021/09/25 02:59:20;;;;;;;14.00;7.22;;;;;;;9.89;80.75;98388.06;5011921;28;20042;-53
2021/09/25 03:01:46;;;;;;;13.90;6.80;;;;;;;9.89;80.53;98383.66;5011466;28;20128;-53
2021/09/25 03:04:11;;;;;;;12.88;7.95;;;;;;;9.89;80.74;98381.06;5011554;28;20068;-51
2021/09/25 03:06:37;;;;;;;12.65;7.68;;;;;;;9.82;81.10;98366.75;5027139;28;20045;-49
2021/09/25 03:09:04;;;;;;;13.93;7.47;;;;;;;9.90;80.93;98384.50;5014335;28;20040;-48
2021/09/25 03:11:30;;;;;;;12.88;7.53;;;;;;;9.90;81.37;98385.34;5011803;28;20440;-47
2021/09/25 03:13:55;;;;;;;11.38;6.90;;;;;;;9.90;80.90;98389.69;5011356;28;20092;-49
2021/09/25 03:16:21;;;;;;;11.38;6.43;;;;;;;9.90;81.07;98382.75;5011050;28;20042;-50
2021/09/25 03:18:47;;;;;;;11.35;7.18;;;;;;;9.88;81.23;98391.56;4977407;28;20049;-49
2021/09/25 03:21:13;;;;;;;13.15;7.20;;;;;;;9.90;81.04;98387.94;5010604;28;20033;-48
2021/09/25 03:23:38;;;;;;;15.32;7.07;;;;;;;9.95;81.62;98390.28;5009467;28;20064;-49
2021/09/25 03:26:04;;;;;;;13.75;7.68;;;;;;;9.99;81.25;98381.44;4992264;28;20060;-49
2021/09/25 03:28:30;;;;;;;13.13;7.28;;;;;;;9.99;80.65;98389.25;5010460;28;20045;-49
2021/09/25 03:30:56;;;;;;;17.90;7.63;;;;;;;9.93;80.68;98381.78;5029480;28;20102;-50
2021/09/25 03:33:21;;;;;;;12.70;7.57;;;;;;;9.99;80.67;98390.09;5005362;28;20136;-49
2021/09/25 03:35:47;;;;;;;13.10;7.22;;;;;;;10.02;80.87;98396.84;5011033;28;20053;-48
2021/09/25 03:38:19;;;;;;;16.38;7.40;;;;;;;9.93;80.81;98376.56;4993795;28;20149;-52
2021/09/25 03:40:45;;;;;;;12.43;6.90;;;;;;;10.04;80.46;98395.88;5011185;28;20041;-50
2021/09/25 03:43:11;;;;;;;12.10;7.10;;;;;;;9.99;80.75;98371.91;5015514;28;20061;-52
2021/09/25 03:45:37;;;;;;;11.23;7.20;;;;;;;9.98;80.41;98365.03;5031121;28;20080;-52
2021/09/25 03:48:05;;;;;;;10.35;6.57;;;;;;;10.04;80.56;98376.84;5013170;28;20048;-52
2021/09/25 03:50:32;;;;;;;11.90;7.45;;;;;;;10.12;80.65;98385.06;5010856;28;20592;-51
2021/09/25 03:52:58;;;;;;;11.77;6.90;;;;;;;10.15;79.87;98387.50;5010629;28;20129;-53
2021/09/25 03:55:24;;;;;;;18.08;7.40;;;;;;;10.14;80.56;98393.63;5010654;28;20049;-54
2021/09/25 03:57:50;;;;;;;16.63;7.82;;;;;;;10.15;80.35;98387.50;5010398;28;20034;-53
2021/09/25 04:00:17;;;;;;;13.73;7.40;;;;;;;10.16;80.43;98394.38;4995439;28;20041;-48
2021/09/25 04:02:42;;;;;;;14.23;6.82;;;;;;;10.17;79.85;98399.50;5009749;28;20087;-47
2021/09/25 04:05:09;;;;;;;13.18;7.32;;;;;;;10.08;80.38;98379.19;5010901;28;20425;-49
2021/09/25 04:07:35;;;;;;;12.57;7.72;;;;;;;10.19;79.86;98394.25;5010936;28;20045;-50
2021/09/25 04:10:00;;;;;;;12.82;7.38;;;;;;;10.20;79.62;98390.72;5016296;28;20128;-48
2021/09/25 04:12:26;;;;;;;13.05;7.50;;;;;;;10.23;80.08;98398.34;5012752;28;20547;-50
2021/09/25 04:14:52;;;;;;;12.50;7.47;;;;;;;10.27;80.30;98404.22;5010190;28;20074;-49
2021/09/25 04:17:17;;;;;;;12.60;7.18;;;;;;;10.32;79.74;98400.44;5010596;28;20045;-52
2021/09/25 04:19:43;;;;;;;11.60;7.35;;;;;;;10.34;79.59;98401.22;5010331;28;20046;-55
2021/09/25 04:22:09;;;;;;;13.90;7.68;;;;;;;10.45;79.33;98405.84;4993047;28;20475;-53
2021/09/25 04:24:34;;;;;;;12.70;7.20;;;;;;;10.39;78.77;98404.41;4993076;28;20041;-54
2021/09/25 04:27:00;;;;;;;13.90;7.10;;;;;;;10.38;79.13;98407.06;5010015;28;20046;-49
2021/09/25 04:29:26;;;;;;;14.13;7.20;;;;;;;10.41;79.11;98404.31;5009234;28;20053;-48
2021/09/25 04:31:51;;;;;;;11.52;7.15;;;;;;;10.41;79.09;98397.38;4992367;28;20042;-53
2021/09/25 04:34:17;;;;;;;16.10;7.65;;;;;;;10.32;79.17;98379.66;5010277;28;20428;-49
2021/09/25 04:36:43;;;;;;;12.02;7.57;;;;;;;10.40;78.81;98393.09;5010501;28;20132;-54
2021/09/25 04:39:09;;;;;;;12.65;8.13;;;;;;;10.39;79.10;98393.16;4992763;28;20512;-49
2021/09/25 04:41:34;;;;;;;12.35;7.30;;;;;;;10.41;79.17;98399.13;5009788;28;20100;-52
2021/09/25 04:44:00;;;;;;;12.05;7.10;;;;;;;10.42;79.32;98393.00;5014691;28;20041;-48
2021/09/25 04:46:26;;;;;;;14.55;8.30;;;;;;;10.40;79.11;98389.66;5015276;28;20065;-47
2021/09/25 04:48:52;;;;;;;12.27;7.25;;;;;;;10.43;79.02;98392.06;5009795;28;20046;-51
2021/09/25 04:51:18;;;;;;;17.25;7.93;;;;;;;10.45;78.97;98401.47;5010104;28;20045;-53
2021/09/25 04:53:44;;;;;;;14.30;8.15;;;;;;;10.34;79.20;98383.03;5008126;28;20065;-52
2021/09/25 04:56:11;;;;;;;11.40;7.30;;;;;;;10.42;79.26;98398.19;5008963;28;20073;-51
2021/09/25 04:58:38;;;;;;;16.65;7.78;;;;;;;10.41;79.38;98386.16;4992684;28;20124;-50
2021/09/25 05:01:05;;;;;;;13.05;7.10;;;;;;;10.44;78.70;98394.59;5009298;28;20048;-52
2021/09/25 05:03:32;;;;;;;11.65;7.53;;;;;;;10.35;79.12;98384.72;5011330;28;20038;-50
2021/09/25 05:05:58;;;;;;;16.02;7.22;;;;;;;10.46;78.99;98399.72;5045208;28;20056;-49
2021/09/25 05:08:24;;;;;;;15.57;8.40;;;;;;;10.41;79.03;98394.78;5036996;28;20033;-52
2021/09/25 05:10:50;;;;;;;12.98;7.78;;;;;;;10.54;78.37;98397.53;5009780;28;20042;-52
2021/09/25 05:13:16;;;;;;;13.63;7.85;;;;;;;10.51;78.34;98401.16;5031269;28;20464;-52
2021/09/25 05:15:42;;;;;;;13.30;8.73;;;;;;;10.48;78.47;98401.28;5033790;28;20084;-53
2021/09/25 05:18:07;;;;;;;11.70;7.50;;;;;;;10.48;78.65;98398.69;5033489;28;20103;-52
2021/09/25 05:20:33;;;;;;;14.48;8.10;;;;;;;10.56;78.42;98404.34;5028302;28;20092;-50
2021/09/25 05:22:58;;;;;;;13.68;7.97;;;;;;;10.61;78.41;98396.28;5004983;28;20153;-51
2021/09/25 05:25:24;;;;;;;14.23;8.10;;;;;;;10.61;77.53;98385.88;5024010;28;20144;-49
2021/09/25 05:27:50;;;;;;;13.82;8.00;;;;;;;10.62;77.73;98395.38;5031173;28;20056;-47
2021/09/25 05:30:16;;;;;;;12.80;8.13;;;;;;;10.71;77.40;98400.03;5022695;28;20068;-49
2021/09/25 05:32:42;;;;;;;11.75;7.05;;;;;;;10.68;77.60;98394.19;5013334;28;20074;-53
2021/09/25 05:35:08;;;;;;;15.85;8.60;;;;;;;10.69;77.46;98391.47;5013539;28;20034;-47
2021/09/25 05:37:34;;;;;;;12.93;8.15;;;;;;;10.67;77.44;98382.94;5013567;28;20050;-49
2021/09/25 05:40:00;;;;;;;14.10;8.20;;;;;;;10.70;78.04;98389.72;5016282;28;20565;-48
2021/09/25 05:42:27;;;;;;;11.63;7.80;;;;;;;10.66;77.38;98377.81;5033338;28;20065;-51
2021/09/25 05:44:54;;;;;;;14.15;8.02;;;;;;;10.83;77.71;98394.19;5019873;28;20038;-51
2021/09/25 05:47:23;;;;;;;14.50;7.82;;;;;;;10.88;77.31;98393.91;5013052;28;20049;-52
2021/09/25 05:49:50;;;;;;;13.25;7.75;;;;;;;10.85;76.99;98397.50;5013495;28;20049;-50
2021/09/25 05:52:18;;;;;;;14.98;7.93;;;;;;;10.77;77.28;98396.28;5013435;28;20037;-49
2021/09/25 05:54:44;;;;;;;14.23;8.35;;;;;;;10.80;76.74;98402.13;5015889;28;20069;-47
2021/09/25 05:57:10;;;;;;;12.07;8.25;;;;;;;10.82;77.14;98405.50;5012736;28;20041;-50
2021/09/25 05:59:36;;;;;;;14.70;7.70;;;;;;;10.84;77.38;98411.44;5013146;28;20100;-48
2021/09/25 06:02:03;;;;;;;12.60;7.65;;;;;;;10.82;77.11;98409.84;5012762;28;20053;-51
2021/09/25 06:04:30;;;;;;;12.85;7.75;;;;;;;10.79;77.05;98397.84;5021236;28;20057;-48
2021/09/25 06:06:56;;;;;;;15.68;8.73;;;;;;;10.83;77.25;98407.19;5029406;28;20068;-53
2021/09/25 06:09:22;;;;;;;14.25;8.30;;;;;;;10.84;77.36;98400.19;4997639;28;20144;-53
2021/09/25 06:11:51;;;;;;;13.15;7.75;;;;;;;10.89;76.81;98409.41;5015311;28;20060;-53
2021/09/25 06:14:18;;;;;;;14.95;8.40;;;;;;;10.85;77.06;98400.09;5012571;28;20682;-54
2021/09/25 06:16:43;;;;;;;12.98;8.13;;;;;;;10.81;77.01;98392.56;5021614;28;20433;-50
2021/09/25 06:19:09;;;;;;;14.23;7.80;;;;;;;10.74;77.27;98375.63;5030245;28;20041;-49
2021/09/25 06:21:35;;;;;;;13.07;8.27;;;;;;;10.89;76.81;98403.38;4995938;28;20041;-48
2021/09/25 06:24:01;;;;;;;11.80;7.63;;;;;;;10.87;77.44;98394.84;5026139;28;20034;-50
2021/09/25 06:26:26;;;;;;;15.82;8.73;;;;;;;10.90;77.46;98392.88;5030422;28;20140;-49
2021/09/25 06:28:52;;;;;;;13.18;8.50;;;;;;;10.98;77.00;98392.47;5030517;28;20540;-48
2021/09/25 06:31:21;;;;;;;16.50;8.45;;;;;;;10.93;76.98;98391.91;5036973;28;20047;-50
2021/09/25 06:33:47;;;;;;;11.80;7.57;;;;;;;10.93;76.91;98391.91;5023223;28;20041;-53
2021/09/25 06:36:12;;;;;;;14.60;7.75;;;;;;;10.85;77.57;98392.31;5012378;28;20548;-52
2021/09/25 06:38:38;;;;;;;13.55;7.53;;;;;;;10.88;77.00;98384.34;5012831;28;20125;-51
2021/09/25 06:41:04;;;;;;;14.32;7.93;;;;;;;10.75;76.91;98359.97;5018712;28;20489;-51
2021/09/25 06:43:30;;;;;;;12.85;7.35;;;;;;;10.87;77.02;98379.22;5034529;28;20069;-51
2021/09/25 06:45:56;;;;;;;12.93;8.05;;;;;;;10.88;77.04;98384.34;4998881;28;20038;-57
2021/09/25 06:48:22;;;;;;;15.25;7.57;;;;;;;11.01;76.69;98389.69;5012285;28;20050;-53
2021/09/25 06:50:47;;;;;;;13.15;7.95;;;;;;;11.02;76.80;98379.19;5012087;28;20496;-53
2021/09/25 06:53:13;;;;;;;11.85;7.20;;;;;;;11.05;76.28;98391.19;5011737;28;20052;-53
2021/09/25 06:55:39;;;;;;;12.43;7.72;;;;;;;11.07;76.16;98386.75;5012494;28;20046;-58
2021/09/25 06:58:06;;;;;;;13.73;8.10;;;;;;;11.10;76.41;98389.16;4993665;28;20057;-48
2021/09/25 07:00:32;;;;;;;13.10;7.57;;;;;;;10.92;76.47;98361.59;5022538;28;20037;-53
2021/09/25 07:02:58;;;;;;;15.20;8.07;;;;;;;11.12;76.77;98383.88;5011431;28;20046;-54
2021/09/25 07:05:24;;;;;;;11.15;6.93;;;;;;;11.17;76.14;98382.69;5031125;28;20049;-54
2021/09/25 07:07:50;;;;;;;12.68;7.35;;;;;;;11.24;75.92;98380.56;5019116;28;20053;-50
2021/09/25 07:10:16;;;;;;;13.10;7.80;;;;;;;11.25;75.63;98392.66;5024763;28;20042;-50
2021/09/25 07:12:43;;;;;;;12.63;7.65;;;;;;;11.26;76.09;98384.75;4996387;28;20064;-56
2021/09/25 07:15:09;;;;;;;14.43;8.35;;;;;;;11.18;75.54;98389.56;5011340;28;20038;-54
2021/09/25 07:17:35;;;;;;;10.80;7.03;;;;;;;11.19;75.77;98388.66;4963357;28;20064;-51
2021/09/25 07:20:02;;;;;;;13.57;6.45;;;;;;;11.23;75.20;98391.91;5022387;28;20523;-54
2021/09/25 07:22:28;;;;;;;11.18;7.20;;;;;;;11.22;75.97;98388.47;5024081;28;20050;-55
2021/09/25 07:24:54;;;;;;;15.55;8.30;;;;;;;11.25;75.44;98392.66;5009424;28;20038;-54
2021/09/25 07:27:23;;;;;;;13.57;7.55;;;;;;;11.20;75.39;98390.31;5009462;28;20102;-55
2021/09/25 07:29:49;;;;;;;12.23;7.10;;;;;;;11.17;75.46;98389.66;5025405;28;20037;-53
2021/09/25 07:32:16;;;;;;;12.13;6.88;;;;;;;11.11;76.03;98383.03;4993126;28;20095;-55
2021/09/25 07:34:42;;;;;;;12.45;7.03;;;;;;;11.08;75.86;98387.59;5009711;28;20042;-54
2021/09/25 07:37:08;;;;;;;12.63;7.00;;;;;;;11.03;76.38;98380.88;5010844;28;20050;-55
2021/09/25 07:39:34;;;;;;;11.57;6.55;;;;;;;11.01;76.29;98371.47;5011393;28;20065;-55
2021/09/25 07:42:01;;;;;;;10.98;7.05;;;;;;;11.10;75.98;98383.09;5011194;28;20037;-54
2021/09/25 07:44:27;;;;;;;10.90;7.60;;;;;;;11.17;75.89;98380.09;5018855;28;20112;-51
2021/09/25 07:46:52;;;;;;;11.38;7.07;;;;;;;11.28;75.95;98377.69;5011296;28;20433;-53
2021/09/25 07:49:18;;;;;;;11.50;7.18;;;;;;;11.32;75.28;98352.34;5011212;28;20040;-53
2021/09/25 07:51:44;;;;;;;11.27;7.13;;;;;;;11.40;75.22;98382.19;4993613;28;20053;-51
2021/09/25 07:54:10;;;;;;;12.70;6.63;;;;;;;11.42;75.02;98384.69;5010700;28;20485;-55
2021/09/25 07:56:36;;;;;;;11.90;6.95;;;;;;;11.38;75.29;98371.03;5011015;28;20365;-55
2021/09/25 07:59:02;;;;;;;11.93;6.32;;;;;;;11.42;75.11;98380.34;5010884;28;20096;-55
2021/09/25 08:01:28;;;;;;;15.30;7.25;;;;;;;11.39;75.52;98370.13;5011036;28;20512;-54
2021/09/25 08:03:54;;;;;;;12.40;6.57;;;;;;;11.47;75.26;98374.84;5010710;28;20137;-55
2021/09/25 08:06:20;;;;;;;13.55;6.90;;;;;;;11.44;75.24;98370.69;5010543;28;20046;-55
2021/09/25 08:08:46;;;;;;;10.02;6.30;;;;;;;11.46;75.55;98370.59;5011722;28;20579;-53
2021/09/25 08:11:12;;;;;;;13.98;7.38;;;;;;;11.47;74.89;98364.44;5012471;28;20046;-56
2021/09/25 08:13:37;;;;;;;9.88;6.78;;;;;;;11.48;75.28;98363.53;5030251;28;20041;-55
2021/09/25 08:16:03;;;;;;;11.77;7.57;;;;;;;11.40;75.18;98355.34;5030377;28;20520;-55
2021/09/25 08:18:29;;;;;;;12.73;7.32;;;;;;;11.52;75.06;98358.97;5022232;28;20140;-54
2021/09/25 08:20:55;;;;;;;12.27;7.20;;;;;;;11.64;74.66;98360.84;5010483;28;20132;-56
2021/09/25 08:23:21;;;;;;;14.07;6.93;;;;;;;11.75;74.44;98354.09;5010394;28;20152;-55
2021/09/25 08:25:47;;;;;;;13.75;7.15;;;;;;;11.89;73.92;98359.31;5010438;28;20628;-54
2021/09/25 08:28:13;;;;;;;14.52;7.22;;;;;;;11.94;73.78;98372.03;5010410;28;20124;-53
2021/09/25 08:30:39;;;;;;;12.55;6.95;;;;;;;11.78;74.05;98358.28;4992607;28;20061;-52
2021/09/25 08:33:05;;;;;;;10.52;6.80;;;;;;;11.64;74.49;98355.63;5010396;28;20072;-54
2021/09/25 08:35:30;;;;;;;12.18;7.35;;;;;;;11.59;75.04;98355.91;4992998;28;20069;-55
2021/09/25 08:37:56;;;;;;;12.18;6.93;;;;;;;11.51;74.98;98332.13;5010361;28;20049;-54
2021/09/25 08:40:22;;;;;;;14.57;7.28;;;;;;;11.66;74.85;98340.78;5010340;28;20517;-56
2021/09/25 08:42:50;;;;;;;12.63;7.70;;;;;;;11.68;74.75;98344.09;4992402;28;20096;-55
2021/09/25 08:45:16;;;;;;;13.13;7.30;;;;;;;11.51;75.70;98341.69;5009881;28;20037;-51
2021/09/25 08:47:42;;;;;;;14.50;7.60;;;;;;;11.44;77.37;98349.88;5002370;28;20659;-56
2021/09/25 08:50:09;;;;;;;13.20;7.72;;;;;;;11.44;78.37;98341.22;5012334;28;20061;-53
2021/09/25 08:52:35;;;;;;;12.45;7.47;;;;;;;11.31;78.70;98324.63;5030036;28;20099;-54
2021/09/25 08:55:01;;;;;;;11.82;7.47;;;;;;;11.32;79.33;98321.97;5019205;28;20041;-55
2021/09/25 08:57:27;;;;;;;12.85;7.25;;;;;;;11.37;79.85;98345.94;5009886;28;20061;-57
2021/09/25 08:59:53;;;;;;;13.55;7.88;;;;;;;11.30;80.91;98336.84;5010248;28;20045;-55
2021/09/25 09:02:20;;;;;;;13.70;6.82;;;;;;;11.31;81.87;98348.91;5010084;28;20497;-55
2021/09/25 09:04:55;;;;;;;13.85;8.48;;;;;;;11.25;82.16;98344.03;5009887;28;20084;-54
2021/09/25 09:07:27;;;;;;;16.65;8.75;;;;;;;11.20;83.58;98345.25;5009341;28;20591;-54
2021/09/25 09:09:53;;;;;;;13.73;8.93;;;;;;;11.17;84.15;98343.66;5014607;28;20061;-55
2021/09/25 09:12:27;;;;;;;13.07;8.25;;;;;;;11.22;84.76;98351.19;5009863;28;20041;-55
2021/09/25 09:14:54;;;;;;;11.75;7.40;;;;;;;11.21;85.22;98355.56;4992428;28;20092;-56
2021/09/25 09:17:28;;;;;;;14.20;8.60;;;;;;;11.38;84.59;98349.38;5020876;28;20045;-55
2021/09/25 09:19:54;;;;;;;14.77;8.20;;;;;;;11.41;84.76;98347.44;5027467;28;20056;-56
2021/09/25 09:22:22;;;;;;;12.85;8.20;;;;;;;11.43;85.09;98349.94;5036848;28;20090;-55
2021/09/25 09:24:54;;;;;;;13.13;7.28;;;;;;;11.36;84.61;98340.81;5012163;28;20041;-52
2021/09/25 09:27:26;;;;;;;12.50;7.30;;;;;;;11.34;84.79;98345.28;5029357;28;20515;-54
2021/09/25 09:30:15;;;;;;;13.50;8.45;;;;;;;11.39;83.92;98343.25;5026937;28;20053;-55
2021/09/25 09:32:43;;;;;;;10.18;7.10;;;;;;;11.46;83.71;98344.56;5008167;28;20038;-53
2021/09/25 09:35:14;;;;;;;13.00;7.97;;;;;;;11.57;83.04;98349.13;4991301;28;20136;-54
2021/09/25 09:37:40;;;;;;;13.00;7.97;;;;;;;11.43;82.42;98316.97;5008902;28;20038;-55
2021/09/25 09:40:07;;;;;;;11.63;7.25;;;;;;;11.66;81.88;98344.22;5009092;28;20046;-57
2021/09/25 09:42:43;;;;;;;13.45;7.28;;;;;;;11.66;81.62;98340.78;5008883;28;20045;-56
2021/09/25 09:45:09;;;;;;;10.55;7.07;;;;;;;11.71;81.23;98336.97;5014594;28;20469;-57
2021/09/25 09:47:45;;;;;;;9.82;6.90;;;;;;;11.72;80.82;98332.59;5009588;28;20033;-51
2021/09/25 09:50:12;;;;;;;14.68;7.82;;;;;;;11.67;80.51;98337.25;5009645;28;20042;-54
2021/09/25 09:52:38;;;;;;;12.48;7.43;;;;;;;11.66;80.55;98340.78;5009582;28;20038;-55
2021/09/25 09:55:06;;;;;;;11.98;5.95;;;;;;;11.61;80.51;98345.44;5009381;28;20445;-50
2021/09/25 09:57:33;;;;;;;13.65;6.57;;;;;;;11.58;80.68;98342.97;5026946;28;20508;-55
2021/09/25 09:59:59;;;;;;;10.13;6.50;;;;;;;11.55;80.87;98327.56;4995661;28;20041;-56
2021/09/25 10:02:26;;;;;;;11.38;6.82;;;;;;;11.58;80.91;98350.78;5013000;28;20045;-53
2021/09/25 10:04:52;;;;;;;9.18;6.30;;;;;;;11.58;80.82;98333.41;5013067;28;20057;-54
2021/09/25 10:07:18;;;;;;;10.05;6.45;;;;;;;11.63;80.63;98331.38;4994887;28;20046;-55
2021/09/25 10:09:44;;;;;;;9.63;6.35;;;;;;;11.60;80.41;98326.38;5037312;28;20041;-54
2021/09/25 10:12:12;;;;;;;11.98;6.85;;;;;;;11.67;80.32;98326.84;5032658;28;20446;-54
2021/09/25 10:14:41;;;;;;;9.95;6.88;;;;;;;11.70;80.18;98324.88;5032689;28;20045;-56
2021/09/25 10:17:08;;;;;;;;;;;;;;;11.70;79.88;98322.28;4982729;28;20138;-51
2021/09/25 10:19:34;;;;;;;;;;;;;;;11.71;79.94;98320.50;5022379;28;19923;-55
2021/09/25 10:22:08;;;;;;;;;;;;;;;11.70;79.75;98311.88;5045126;28;20007;-54
2021/09/25 10:24:38;;;;;;;;;;;;;;;11.78;79.67;98314.00;5013529;28;19917;-51
2021/09/25 10:27:04;;;;;;;;;;;;;;;11.84;79.69;98317.09;4995608;28;19917;-53
2021/09/25 10:29:30;;;;;;;;;;;;;;;11.96;79.38;98312.06;5012937;28;19929;-55
2021/09/25 10:32:14;;;;;;;;;;;;;;;11.96;79.45;98318.09;5012832;28;20351;-56
2021/09/25 10:34:48;;;;;;;;;;;;;;;11.92;79.45;98315.78;5013601;28;20352;-55
2021/09/25 10:37:13;;;;;;;;;;;;;;;11.97;79.04;98326.75;5013164;28;19917;-55
2021/09/25 10:39:39;;;;;;;;;;;;;;;12.03;78.21;98322.03;5011733;28;19924;-55
2021/09/25 10:42:10;;;;;;;;;;;;;;;12.00;77.83;98316.97;5013284;28;19917;-51
2021/09/25 10:44:45;;;;;;;;;;;;;;;12.03;77.91;98310.75;5022607;28;20019;-54
2021/09/25 10:47:11;;;;;;;;;;;;;;;12.18;77.30;98308.03;5032593;28;19928;-55
2021/09/25 10:50:03;;;;;;;;;;;;;;;12.27;76.63;98311.81;5029775;28;19921;-55
2021/09/25 10:52:42;;;;;;;;;;;;;;;12.37;76.18;98312.06;5012006;28;20016;-55
2021/09/25 10:55:18;;;;;;;;;;;;;;;12.53;75.81;98307.56;5012607;28;19925;-52
2021/09/25 10:57:43;;;;;;;;;;;;;;;12.57;75.32;98306.41;5012435;28;19917;-51
2021/09/25 11:00:19;;;;;;;;;;;;;;;12.55;75.29;98306.53;5012756;28;19924;-53
2021/09/25 11:02:45;;;;;;;;;;;;;;;12.63;75.02;98306.88;5011939;28;20055;-55
2021/09/25 11:05:17;;;;;;;;;;;;;;;12.69;74.76;98311.69;5012759;28;19984;-51
2021/09/25 11:07:46;;;;;;;;;;;;;;;12.59;74.65;98315.00;5012157;28;20007;-54
2021/09/25 11:10:11;;;;;;;;;;;;;;;12.40;74.22;98311.91;5040446;28;19924;-53
2021/09/25 11:12:45;;;;;;;;;;;;;;;12.28;74.35;98309.13;5032243;28;19921;-55
2021/09/25 11:15:43;;;;;;;;;;;;;;;12.28;74.35;98313.50;5000114;28;19921;-54
2021/09/25 11:18:25;;;;;;;;;;;;;;;12.26;74.16;98307.53;4993948;28;19917;-55
2021/09/25 11:20:52;;;;;;;;;;;;;;;12.19;74.10;98301.91;5012250;28;19917;-51
2021/09/25 11:23:17;;;;;;;;;;;;;;;12.18;74.42;98304.59;5011956;28;20007;-55
2021/09/25 11:25:48;;;;;;;;;;;;;;;12.13;74.57;98301.44;5011913;28;19984;-51
2021/09/25 11:28:20;;;;;;;;;;;;;;;12.13;74.62;98297.06;5011894;28;19963;-54
2021/09/25 11:30:45;;;;;;;;;;;;;;;12.12;74.52;98297.16;5011900;28;19987;-53
2021/09/25 11:33:11;;;;;;;;;;;;;;;12.13;74.76;98296.22;4994772;28;19917;-54